Egmondgracht — PDWG — position and weather

sailwx.info

Track history (hours):
 
Tides and Currents Weather Stations Pressure Air Temp Water Temp Dewpoint Dewpoint Depression Visibility Wind Speed Wind Dir Waves Ship Positions

Egmondgracht

Last reported at 2014-Dec-27 03:09 UTC. Time now 2015-Jan-25 10:20 UTC.
Position N 17°07' W 018°30'.
Warning: this ship's position is 29 days out of date.

Length 136 m; beam 19 m; draft 9 m.

Type: Cargo ship. MMSI: 245716000.

Date/timePositionNaut miles runAvg speedWind from/ knotsBaromVisibWave heightAir tempDewpointWater temp
2014-Dec-27 03:09N 17°07' W 018°30'42113.7
2014-Dec-25 20:23N 24°03' W 017°19'1713.8
2014-Dec-25 19:11N 24°18' W 017°10'914.1
2014-Dec-25 18:33N 24°25' W 017°06'1613.8
2014-Dec-25 17:24N 24°39' W 016°57'  
2014-Dec-23 00:34N 35°58' W 005°34'1515.1
2014-Dec-22 23:34N 36°02' W 005°16'24214.8
2014-Dec-22 07:12N 37°17' W 000°29'10314.6
2014-Dec-22 00:10N 38°12' E 001°21'2414.6
2014-Dec-21 22:33N 38°25' E 001°47'1414.3
2014-Dec-21 21:33N 38°32' E 002°02'1414.0
2014-Dec-21 20:33N 38°40' E 002°17'1414.3
2014-Dec-21 19:33N 38°47' E 002°33'1514.6
2014-Dec-21 18:33N 38°55' E 002°49'1414.3
2014-Dec-21 17:33N 39°03' E 003°04'1414.1
2014-Dec-21 16:33N 39°10' E 003°20'1414.4
2014-Dec-21 15:33N 39°18' E 003°35'3114.6
2014-Dec-21 13:25N 39°34' E 004°10'30313.8
2014-Dec-20 15:30N 43°13' E 008°49'1313.8
2014-Dec-20 14:33N 43°22' E 009°01'1413.9
2014-Dec-20 13:33N 43°32' E 009°14'1414.2
2014-Dec-20 12:33N 43°42' E 009°28'1414.2
2014-Dec-20 11:33N 43°53' E 009°42'1312.9
2014-Dec-20 10:33N 44°04' E 009°52'3 2.9
2014-Dec-20 09:31N 44°07' E 009°50'0 0.0
2014-Dec-20 08:31N 44°07' E 009°50'0 0.0
2014-Dec-20 07:31N 44°07' E 009°50'0 0.0
2014-Dec-20 06:31N 44°07' E 009°50'0 0.0
2014-Dec-20 05:31N 44°07' E 009°50'0 0.0
2014-Dec-20 04:31N 44°07' E 009°50'0 0.0
2014-Dec-20 03:31N 44°07' E 009°50'0 0.0
2014-Dec-20 02:34N 44°07' E 009°50'0 0.0
2014-Dec-20 01:33N 44°07' E 009°50'0 0.0
2014-Dec-20 00:33N 44°07' E 009°50'0 0.0
2014-Dec-19 23:33N 44°07' E 009°50'0 0.0
2014-Dec-19 22:33N 44°07' E 009°50'0 0.0
2014-Dec-19 21:33N 44°07' E 009°50'0 0.0
2014-Dec-19 20:33N 44°07' E 009°50'0 0.0
2014-Dec-19 19:33N 44°07' E 009°50'0 0.0
2014-Dec-19 18:33N 44°07' E 009°50'0 0.0
2014-Dec-19 17:33N 44°07' E 009°50'0 0.0
2014-Dec-19 16:33N 44°07' E 009°50'0 0.0
2014-Dec-19 15:33N 44°07' E 009°50'0 0.0
2014-Dec-19 14:33N 44°07' E 009°50'3 2.6
2014-Dec-19 13:33N 44°04' E 009°51'1111.1
2014-Dec-19 12:33N 43°53' E 009°53'1514.7
2014-Dec-19 11:34N 43°39' E 009°48'1515.4
2014-Dec-19 10:34N 43°24' E 009°43'4815.3
2014-Dec-19 07:24N 42°36' E 009°51'  
Track history (hours):
 
Tides and Currents Weather Stations Pressure Air Temp Water Temp Dewpoint Dewpoint Depression Visibility Wind Speed Wind Dir Waves Ship Positions

Egmondgracht

Last reported at 2014-Dec-27 03:09 UTC. Time now 2015-Jan-25 10:20 UTC.
Position N 17°07' W 018°30'.
Warning: this ship's position is 29 days out of date.

Length 136 m; beam 19 m; draft 9 m.

Type: Cargo ship. MMSI: 245716000.

Date/timePositionNaut miles runAvg speedWind from/ knotsBaromVisibWave heightAir tempDewpointWater temp
2014-Dec-27 03:09N 17°07' W 018°30'42113.7
2014-Dec-25 20:23N 24°03' W 017°19'1713.8
2014-Dec-25 19:11N 24°18' W 017°10'914.1
2014-Dec-25 18:33N 24°25' W 017°06'1613.8
2014-Dec-25 17:24N 24°39' W 016°57'  
2014-Dec-23 00:34N 35°58' W 005°34'1515.1
2014-Dec-22 23:34N 36°02' W 005°16'24214.8
2014-Dec-22 07:12N 37°17' W 000°29'10314.6
2014-Dec-22 00:10N 38°12' E 001°21'2414.6
2014-Dec-21 22:33N 38°25' E 001°47'1414.3
2014-Dec-21 21:33N 38°32' E 002°02'1414.0
2014-Dec-21 20:33N 38°40' E 002°17'1414.3
2014-Dec-21 19:33N 38°47' E 002°33'1514.6
2014-Dec-21 18:33N 38°55' E 002°49'1414.3
2014-Dec-21 17:33N 39°03' E 003°04'1414.1
2014-Dec-21 16:33N 39°10' E 003°20'1414.4
2014-Dec-21 15:33N 39°18' E 003°35'3114.6
2014-Dec-21 13:25N 39°34' E 004°10'30313.8
2014-Dec-20 15:30N 43°13' E 008°49'1313.8
2014-Dec-20 14:33N 43°22' E 009°01'1413.9
2014-Dec-20 13:33N 43°32' E 009°14'1414.2
2014-Dec-20 12:33N 43°42' E 009°28'1414.2
2014-Dec-20 11:33N 43°53' E 009°42'1312.9
2014-Dec-20 10:33N 44°04' E 009°52'3 2.9
2014-Dec-20 09:31N 44°07' E 009°50'0 0.0
2014-Dec-20 08:31N 44°07' E 009°50'0 0.0
2014-Dec-20 07:31N 44°07' E 009°50'0 0.0
2014-Dec-20 06:31N 44°07' E 009°50'0 0.0
2014-Dec-20 05:31N 44°07' E 009°50'0 0.0
2014-Dec-20 04:31N 44°07' E 009°50'0 0.0
2014-Dec-20 03:31N 44°07' E 009°50'0 0.0
2014-Dec-20 02:34N 44°07' E 009°50'0 0.0
2014-Dec-20 01:33N 44°07' E 009°50'0 0.0
2014-Dec-20 00:33N 44°07' E 009°50'0 0.0
2014-Dec-19 23:33N 44°07' E 009°50'0 0.0
2014-Dec-19 22:33N 44°07' E 009°50'0 0.0
2014-Dec-19 21:33N 44°07' E 009°50'0 0.0
2014-Dec-19 20:33N 44°07' E 009°50'0 0.0
2014-Dec-19 19:33N 44°07' E 009°50'0 0.0
2014-Dec-19 18:33N 44°07' E 009°50'0 0.0
2014-Dec-19 17:33N 44°07' E 009°50'0 0.0
2014-Dec-19 16:33N 44°07' E 009°50'0 0.0
2014-Dec-19 15:33N 44°07' E 009°50'0 0.0
2014-Dec-19 14:33N 44°07' E 009°50'3 2.6
2014-Dec-19 13:33N 44°04' E 009°51'1111.1
2014-Dec-19 12:33N 43°53' E 009°53'1514.7
2014-Dec-19 11:34N 43°39' E 009°48'1515.4
2014-Dec-19 10:34N 43°24' E 009°43'4815.3
2014-Dec-19 07:24N 42°36' E 009°51'  

Dump ship's entire track history